Time;durP1;ratioP1;P1;durP2;ratioP2;P2;SDS_P1;SDS_P2;PMS_P1;PMS_P2;Temp;Humidity;BMP_temperature;BMP_pressure;BME280_temperature;BME280_humidity;BME280_pressure;Samples;Min_cycle;Max_cycle;Signal;HPM_P1;HPM_P2
2024/04/24 00:04:23;;;;;;;1.60;1.50;;;17.80;61.20;;;;;;11282131;26;20009;-30
2024/04/24 00:09:26;;;;;;;1.90;1.70;;;17.80;61.20;;;;;;11281924;26;20350;-28
2024/04/24 00:14:30;;;;;;;1.70;1.55;;;17.80;61.30;;;;;;11281803;26;20009;-27
2024/04/24 00:19:36;;;;;;;1.52;1.35;;;17.80;61.20;;;;;;11281693;26;20013;-26
2024/04/24 00:24:39;;;;;;;1.65;1.35;;;17.80;61.30;;;;;;11281557;26;20017;-24
2024/04/24 00:29:42;;;;;;;1.65;1.30;;;17.70;61.20;;;;;;11281406;26;20045;-29
2024/04/24 00:34:48;;;;;;;1.65;1.50;;;17.70;61.20;;;;;;11281268;26;20007;-28
2024/04/24 00:39:51;;;;;;;1.88;1.30;;;17.70;61.20;;;;;;11280955;26;20013;-28
2024/04/24 00:44:54;;;;;;;1.30;1.20;;;17.70;61.30;;;;;;11280972;26;20011;-28
2024/04/24 00:50:00;;;;;;;1.20;1.10;;;17.70;61.30;;;;;;11280531;26;20011;-27
2024/04/24 00:55:04;;;;;;;1.88;1.30;;;17.70;61.40;;;;;;11280158;26;19999;-27
2024/04/24 01:00:09;;;;;;;1.20;1.10;;;17.60;61.40;;;;;;11280170;26;20013;-28
2024/04/24 01:05:14;;;;;;;1.58;1.45;;;17.60;61.40;;;;;;11279810;26;20010;-24
2024/04/24 01:10:18;;;;;;;1.90;1.40;;;17.60;61.40;;;;;;11279829;26;19999;-26
2024/04/24 01:15:21;;;;;;;1.42;1.20;;;17.60;61.50;;;;;;11286189;26;20364;-28
2024/04/24 01:20:28;;;;;;;1.40;1.30;;;17.60;62.10;;;;;;11287188;26;20048;-29
2024/04/24 01:25:34;;;;;;;1.27;1.17;;;17.50;61.50;;;;;;11286912;26;20010;-26
2024/04/24 01:30:40;;;;;;;1.25;1.15;;;17.50;61.50;;;;;;11287018;26;20017;-27
2024/04/24 01:35:43;;;;;;;1.48;1.15;;;17.50;61.60;;;;;;11286912;26;20006;-30
2024/04/24 01:40:46;;;;;;;1.20;1.10;;;17.50;61.60;;;;;;11287259;26;20071;-28
2024/04/24 01:45:52;;;;;;;1.52;1.20;;;17.50;61.60;;;;;;11286325;26;20014;-24
2024/04/24 01:50:56;;;;;;;1.40;1.30;;;17.50;61.60;;;;;;11286429;26;20003;-27
2024/04/24 01:55:59;;;;;;;1.30;1.20;;;17.40;61.50;;;;;;11286011;26;20339;-27
2024/04/24 02:01:05;;;;;;;1.33;1.00;;;17.40;61.60;;;;;;11286073;26;20480;-26
2024/04/24 02:06:08;;;;;;;0.80;0.80;;;17.40;61.60;;;;;;11285966;26;19998;-27
2024/04/24 02:11:12;;;;;;;1.50;1.10;;;17.40;61.60;;;;;;11285774;26;19998;-27
2024/04/24 02:16:17;;;;;;;0.77;0.77;;;17.30;61.60;;;;;;11285537;26;20471;-28
2024/04/24 02:21:21;;;;;;;1.00;0.90;;;17.40;61.70;;;;;;11285531;26;20033;-26
2024/04/24 02:26:24;;;;;;;1.10;1.00;;;17.30;61.60;;;;;;11284552;26;20013;-27
2024/04/24 02:31:30;;;;;;;0.82;0.82;;;17.30;61.70;;;;;;11285142;26;20016;-28
2024/04/24 02:36:33;;;;;;;1.55;1.02;;;17.30;61.70;;;;;;11285439;26;20031;-27
2024/04/24 02:41:36;;;;;;;1.20;1.00;;;17.30;61.70;;;;;;11284829;26;20009;-27
2024/04/24 02:46:42;;;;;;;1.10;1.00;;;17.30;61.70;;;;;;11284651;26;20423;-26
2024/04/24 02:51:46;;;;;;;1.52;1.02;;;17.30;61.80;;;;;;11284594;26;19999;-26
2024/04/24 02:56:49;;;;;;;1.83;0.70;;;17.20;61.80;;;;;;11284673;26;20024;-29
2024/04/24 03:01:55;;;;;;;1.10;1.00;;;17.20;61.70;;;;;;11284355;26;20334;-27
2024/04/24 03:06:58;;;;;;;1.13;1.00;;;17.20;62.50;;;;;;11284026;26;20031;-26
2024/04/24 03:12:01;;;;;;;1.15;1.05;;;17.20;61.70;;;;;;11284026;26;20013;-27
2024/04/24 03:17:07;;;;;;;1.05;0.93;;;17.20;61.70;;;;;;11283961;26;20018;-27
2024/04/24 03:22:13;;;;;;;0.90;0.80;;;17.20;61.80;;;;;;11283711;26;20011;-27
2024/04/24 03:27:16;;;;;;;1.60;1.02;;;17.20;61.70;;;;;;11283397;26;20019;-26
2024/04/24 03:32:22;;;;;;;0.80;0.80;;;17.20;61.80;;;;;;11283635;26;19998;-29
2024/04/24 03:37:25;;;;;;;17.10;2.67;;;17.60;61.50;;;;;;11282307;26;20092;-27
2024/04/24 03:42:28;;;;;;;21.52;5.20;;;17.70;58.30;;;;;;11282794;26;20034;-27
2024/04/24 03:47:34;;;;;;;21.80;4.57;;;17.70;56.80;;;;;;11282420;26;20431;-28
2024/04/24 03:52:38;;;;;;;18.95;4.38;;;17.70;56.80;;;;;;11277941;26;20010;-32
2024/04/24 03:57:41;;;;;;;15.50;4.10;;;17.70;56.70;;;;;;11281748;26;20007;-30
2024/04/24 04:02:47;;;;;;;12.52;3.92;;;17.80;56.50;;;;;;11282436;26;20014;-30
2024/04/24 04:07:57;;;;;;;14.45;3.35;;;17.80;56.70;;;;;;11282049;26;20014;-28
2024/04/24 04:13:01;;;;;;;16.50;3.60;;;18.00;56.90;;;;;;11281876;26;19999;-29
2024/04/24 04:18:07;;;;;;;9.82;3.20;;;18.00;57.10;;;;;;11281760;26;20019;-29
2024/04/24 04:23:10;;;;;;;8.52;2.83;;;18.20;57.10;;;;;;11281586;26;20039;-26
2024/04/24 04:28:13;;;;;;;11.48;2.75;;;18.40;56.90;;;;;;11281220;26;20010;-28
2024/04/24 04:33:19;;;;;;;10.63;3.00;;;18.50;56.80;;;;;;11280885;26;20044;-27
2024/04/24 04:38:22;;;;;;;12.38;3.03;;;18.70;57.00;;;;;;11280801;26;20014;-24
2024/04/24 04:43:26;;;;;;;6.75;2.65;;;18.70;56.90;;;;;;11280767;26;20091;-25
2024/04/24 04:48:32;;;;;;;8.35;2.58;;;18.70;57.20;;;;;;11285702;26;20009;-27
2024/04/24 04:53:35;;;;;;;8.10;2.63;;;18.50;57.80;;;;;;11288059;26;20352;-28
2024/04/24 04:58:38;;;;;;;6.28;2.20;;;18.40;58.40;;;;;;11287870;26;20010;-28
2024/04/24 05:03:44;;;;;;;7.95;2.30;;;18.30;58.80;;;;;;11287790;26;20012;-27
2024/04/24 05:08:48;;;;;;;4.97;2.10;;;18.30;59.30;;;;;;11287535;26;20018;-32
2024/04/24 05:13:51;;;;;;;5.32;2.15;;;18.20;59.30;;;;;;11287378;26;20018;-28
2024/04/24 05:18:57;;;;;;;5.15;2.00;;;18.20;59.60;;;;;;11285076;26;20493;-27
2024/04/24 05:24:00;;;;;;;10.02;1.88;;;18.20;59.80;;;;;;11287152;26;20407;-29
2024/04/24 05:29:07;;;;;;;4.70;1.85;;;18.30;59.30;;;;;;11286981;26;19999;-29
2024/04/24 05:34:12;;;;;;;6.15;2.03;;;18.40;59.00;;;;;;11287392;26;20006;-27
2024/04/24 05:39:16;;;;;;;4.53;1.60;;;18.40;58.90;;;;;;11286830;26;20011;-28
2024/04/24 05:44:19;;;;;;;4.28;1.80;;;18.40;58.90;;;;;;11271949;26;20015;-26
2024/04/24 05:49:25;;;;;;;8.25;2.10;;;18.40;59.40;;;;;;11286468;26;20007;-30
2024/04/24 05:54:28;;;;;;;9.40;2.20;;;18.50;59.20;;;;;;11221253;26;20015;-27
2024/04/24 05:59:31;;;;;;;10.75;2.35;;;18.50;59.40;;;;;;11210838;26;20011;-26
2024/04/24 06:04:37;;;;;;;10.60;2.55;;;18.50;59.20;;;;;;11211484;26;20011;-28
2024/04/24 06:09:41;;;;;;;11.98;2.60;;;18.50;59.00;;;;;;11211403;26;20007;-27
2024/04/24 06:14:44;;;;;;;11.68;2.80;;;18.50;58.90;;;;;;11211262;26;19999;-31
2024/04/24 06:19:50;;;;;;;9.52;2.55;;;18.50;59.00;;;;;;11211289;26;20474;-29
2024/04/24 06:24:53;;;;;;;8.70;2.53;;;18.50;59.10;;;;;;11211060;26;20014;-29
2024/04/24 06:29:57;;;;;;;11.73;2.97;;;18.50;59.10;;;;;;11210856;26;19999;-26
2024/04/24 06:35:03;;;;;;;8.80;2.50;;;18.50;59.10;;;;;;11210778;26;20330;-28
2024/04/24 06:40:08;;;;;;;5.68;2.40;;;18.40;59.20;;;;;;11210743;26;20014;-28
2024/04/24 06:45:11;;;;;;;8.52;2.53;;;18.50;59.20;;;;;;11210213;26;20003;-31
2024/04/24 06:50:17;;;;;;;6.72;2.30;;;18.40;59.40;;;;;;11210353;26;20469;-27
2024/04/24 06:55:21;;;;;;;11.73;2.55;;;18.50;59.10;;;;;;11210140;26;20010;-28
2024/04/24 07:00:25;;;;;;;7.63;2.20;;;18.60;59.00;;;;;;11210056;26;20076;-29
2024/04/24 07:05:32;;;;;;;5.88;2.05;;;18.60;59.00;;;;;;11209894;26;19996;-27
2024/04/24 07:10:35;;;;;;;3.97;2.05;;;18.50;59.20;;;;;;11209517;26;20470;-28
2024/04/24 07:15:40;;;;;;;6.30;2.33;;;18.40;59.40;;;;;;11209622;26;20003;-28
2024/04/24 07:20:46;;;;;;;6.25;2.17;;;18.30;59.40;;;;;;11209359;26;20053;-26
2024/04/24 07:25:49;;;;;;;5.03;2.00;;;18.40;59.40;;;;;;11209320;26;19996;-29
2024/04/24 07:30:53;;;;;;;5.25;2.38;;;18.40;59.00;;;;;;11209054;26;20357;-28
2024/04/24 07:35:59;;;;;;;4.72;1.95;;;18.40;58.80;;;;;;11208992;26;20003;-29
2024/04/24 07:41:05;;;;;;;6.00;1.90;;;18.30;58.90;;;;;;11208908;26;20081;-26
2024/04/24 07:46:10;;;;;;;3.42;1.70;;;18.30;59.00;;;;;;11208497;26;20018;-30
2024/04/24 07:51:16;;;;;;;3.72;1.80;;;18.30;58.90;;;;;;11208460;26;20011;-28
2024/04/24 07:56:19;;;;;;;2.63;1.60;;;18.30;58.80;;;;;;11208332;26;20003;-28
2024/04/24 08:01:22;;;;;;;4.60;1.60;;;18.30;58.80;;;;;;11208201;26;19996;-28
2024/04/24 08:06:28;;;;;;;4.22;1.70;;;18.20;58.70;;;;;;11207748;26;20476;-28
2024/04/24 08:11:31;;;;;;;6.15;1.80;;;18.10;58.80;;;;;;11207868;26;20003;-30
2024/04/24 08:16:34;;;;;;;2.00;1.30;;;18.10;58.90;;;;;;11207536;26;20014;-29
2024/04/24 08:21:40;;;;;;;2.83;1.33;;;18.10;58.70;;;;;;11210061;26;19999;-29
2024/04/24 08:26:44;;;;;;;3.25;1.50;;;18.10;58.70;;;;;;11214579;26;20011;-31
2024/04/24 08:31:47;;;;;;;3.22;1.30;;;18.10;58.70;;;;;;11214375;26;20000;-29
2024/04/24 08:36:53;;;;;;;2.33;1.30;;;18.00;58.50;;;;;;11214533;26;20009;-29
2024/04/24 08:41:56;;;;;;;3.28;1.50;;;18.00;58.50;;;;;;11214137;26;20006;-30
2024/04/24 08:46:59;;;;;;;2.65;1.38;;;18.00;58.40;;;;;;11213818;26;20361;-28
2024/04/24 08:52:05;;;;;;;3.17;1.48;;;18.00;58.40;;;;;;11213787;26;20008;-26
2024/04/24 08:57:10;;;;;;;3.13;1.40;;;18.00;58.40;;;;;;11213597;26;19999;-29
2024/04/24 09:02:13;;;;;;;3.55;1.45;;;17.90;58.30;;;;;;11213584;26;20077;-26
2024/04/24 09:07:20;;;;;;;3.17;1.17;;;17.90;58.00;;;;;;11213296;26;20013;-28
2024/04/24 09:12:23;;;;;;;3.00;1.52;;;18.00;57.70;;;;;;11213369;26;20006;-28
2024/04/24 09:17:27;;;;;;;1.75;1.20;;;18.00;57.40;;;;;;11213026;26;20018;-28
2024/04/24 09:22:33;;;;;;;2.08;1.10;;;18.00;57.40;;;;;;11213477;26;20011;-27
2024/04/24 09:27:36;;;;;;;1.63;1.17;;;18.00;57.30;;;;;;11212806;26;20008;-28
2024/04/24 09:32:40;;;;;;;2.80;1.20;;;17.90;57.10;;;;;;11211314;26;20488;-28
2024/04/24 09:37:46;;;;;;;2.20;1.15;;;17.90;57.30;;;;;;11212953;26;20004;-32
2024/04/24 09:42:50;;;;;;;1.92;1.10;;;17.90;57.30;;;;;;11212504;26;20013;-30
2024/04/24 09:47:53;;;;;;;1.95;1.00;;;17.80;57.40;;;;;;11212107;26;20014;-26
2024/04/24 09:53:00;;;;;;;1.65;1.08;;;17.80;57.40;;;;;;11212136;26;20017;-27
2024/04/24 09:58:03;;;;;;;1.80;1.00;;;17.80;57.80;;;;;;11211829;26;20453;-25
2024/04/24 10:03:10;;;;;;;2.30;1.25;;;17.80;57.20;;;;;;11211602;26;19995;-28
2024/04/24 10:08:18;;;;;;;1.23;0.90;;;17.70;56.90;;;;;;11211518;26;20526;-28
2024/04/24 10:13:23;;;;;;;2.67;1.33;;;17.80;56.80;;;;;;11211447;26;19999;-29
2024/04/24 10:18:27;;;;;;;3.58;1.15;;;17.80;56.70;;;;;;11211251;26;20444;-28
2024/04/24 10:23:33;;;;;;;1.70;1.23;;;17.80;56.60;;;;;;11211173;26;19996;-27
2024/04/24 10:28:36;;;;;;;1.85;1.10;;;17.80;56.70;;;;;;11210988;26;20000;-27
2024/04/24 10:33:39;;;;;;;1.52;0.90;;;17.80;56.70;;;;;;11210608;26;20010;-27
2024/04/24 10:38:47;;;;;;;2.70;1.20;;;17.80;56.60;;;;;;11210994;26;20010;-28
2024/04/24 10:43:51;;;;;;;1.20;0.95;;;17.90;56.60;;;;;;11210180;26;19999;-29
2024/04/24 10:48:58;;;;;;;2.13;1.00;;;17.90;56.60;;;;;;11210272;26;20010;-31
2024/04/24 10:54:14;;;;;;;0.98;0.80;;;17.80;56.50;;;;;;11210298;26;19999;-29
2024/04/24 10:59:17;;;;;;;2.25;1.10;;;17.90;56.40;;;;;;11210290;26;19999;-26
2024/04/24 11:04:20;;;;;;;1.20;1.00;;;17.90;56.50;;;;;;11209851;26;20011;-28
2024/04/24 11:09:26;;;;;;;2.13;1.05;;;17.90;56.50;;;;;;11209785;26;20014;-28
2024/04/24 11:14:32;;;;;;;2.75;1.13;;;17.90;56.40;;;;;;11209635;26;20011;-28
2024/04/24 11:19:35;;;;;;;2.50;1.00;;;17.90;56.20;;;;;;11208713;26;20036;-27
2024/04/24 11:24:42;;;;;;;1.38;0.90;;;17.90;56.10;;;;;;11209441;26;20468;-28
2024/04/24 11:29:46;;;;;;;1.23;0.73;;;17.90;56.00;;;;;;11209274;26;20011;-29
2024/04/24 11:34:49;;;;;;;1.10;0.80;;;17.90;56.00;;;;;;11209623;26;20084;-31
2024/04/24 11:39:55;;;;;;;1.48;0.90;;;17.90;55.90;;;;;;11208982;26;20011;-28
2024/04/24 11:44:59;;;;;;;1.13;0.73;;;18.00;56.00;;;;;;11209056;26;19999;-27
2024/04/24 11:50:02;;;;;;;0.95;0.73;;;17.90;55.90;;;;;;11208489;26;20014;-28
2024/04/24 11:55:09;;;;;;;1.67;1.05;;;17.90;55.90;;;;;;11207169;26;20004;-27
2024/04/24 12:00:12;;;;;;;1.10;0.70;;;17.90;55.90;;;;;;11208404;26;20015;-28
2024/04/24 12:05:16;;;;;;;1.10;0.80;;;17.90;55.70;;;;;;11207924;26;20354;-28
2024/04/24 12:10:28;;;;;;;1.05;0.75;;;18.00;55.60;;;;;;11208358;26;20027;-32
2024/04/24 12:15:31;;;;;;;1.25;0.82;;;18.00;55.60;;;;;;11207871;26;20000;-28
2024/04/24 12:20:35;;;;;;;0.80;0.75;;;18.00;55.60;;;;;;11207683;26;20014;-27
2024/04/24 12:25:40;;;;;;;1.17;0.90;;;18.00;55.60;;;;;;11207287;26;20019;-28
2024/04/24 12:30:44;;;;;;;1.35;0.80;;;18.00;55.60;;;;;;11207122;26;20503;-29
2024/04/24 12:35:47;;;;;;;1.13;0.63;;;18.10;55.50;;;;;;11207002;26;20343;-28
2024/04/24 12:40:53;;;;;;;1.48;0.90;;;18.00;55.40;;;;;;11206745;26;20000;-27
2024/04/24 12:45:56;;;;;;;0.73;0.70;;;18.00;55.40;;;;;;11207080;26;19999;-28
2024/04/24 12:50:59;;;;;;;0.93;0.70;;;18.00;55.50;;;;;;11206280;26;20014;-27
2024/04/24 12:56:06;;;;;;;1.10;0.80;;;17.90;55.40;;;;;;11206076;26;20066;-28
2024/04/24 13:01:09;;;;;;;1.20;0.70;;;18.00;55.40;;;;;;11206060;26;19996;-29
2024/04/24 13:06:14;;;;;;;1.00;0.73;;;17.90;55.30;;;;;;11205861;26;20003;-28
2024/04/24 13:11:20;;;;;;;0.60;0.60;;;17.90;55.40;;;;;;11213322;26;20003;-26
2024/04/24 13:16:23;;;;;;;1.50;0.65;;;17.90;55.60;;;;;;11213308;26;20004;-28
2024/04/24 13:21:26;;;;;;;0.70;0.60;;;17.90;55.90;;;;;;11213426;26;20029;-29
2024/04/24 13:26:32;;;;;;;0.63;0.50;;;17.90;55.90;;;;;;11212835;26;20072;-28
2024/04/24 13:31:35;;;;;;;1.48;0.93;;;18.10;55.80;;;;;;11212907;26;20012;-27
2024/04/24 13:36:38;;;;;;;0.80;0.75;;;18.10;55.80;;;;;;11212724;26;20478;-30
2024/04/24 13:41:44;;;;;;;0.95;0.60;;;18.20;56.40;;;;;;11212422;26;20423;-28
2024/04/24 13:46:48;;;;;;;1.48;0.57;;;18.20;55.70;;;;;;11212221;26;20008;-27
2024/04/24 13:51:51;;;;;;;0.63;0.60;;;18.30;55.60;;;;;;11212063;26;20000;-26
2024/04/24 13:56:57;;;;;;;0.93;0.50;;;18.40;55.60;;;;;;11212608;26;20043;-28
2024/04/24 14:02:01;;;;;;;1.27;0.60;;;18.40;55.40;;;;;;11211982;26;19999;-27
2024/04/24 14:07:04;;;;;;;0.73;0.55;;;18.40;55.30;;;;;;11211686;26;20014;-28
2024/04/24 14:12:10;;;;;;;0.77;0.50;;;18.40;55.10;;;;;;11211441;26;20000;-27
2024/04/24 14:17:14;;;;;;;0.55;0.50;;;18.40;55.00;;;;;;11214881;26;20350;-24
2024/04/24 14:22:17;;;;;;;0.50;0.50;;;18.40;54.90;;;;;;11271515;26;19999;-31
2024/04/24 14:27:23;;;;;;;1.42;0.57;;;18.40;54.90;;;;;;11217141;26;20003;-26
2024/04/24 14:32:26;;;;;;;2.00;0.80;;;18.40;55.00;;;;;;11211051;26;20012;-26
2024/04/24 14:37:29;;;;;;;2.20;0.50;;;18.50;54.90;;;;;;11211044;26;20010;-27
2024/04/24 14:42:35;;;;;;;2.92;0.50;;;18.50;54.80;;;;;;11209644;26;20040;-25
2024/04/24 14:47:39;;;;;;;3.33;0.80;;;18.40;55.00;;;;;;11228340;26;20080;-28
2024/04/24 14:52:44;;;;;;;2.28;0.60;;;18.50;55.00;;;;;;11210320;26;20453;-28
2024/04/24 14:57:49;;;;;;;2.55;0.60;;;18.50;54.80;;;;;;11210174;26;20010;-28
2024/04/24 15:02:53;;;;;;;0.77;0.40;;;18.50;54.90;;;;;;11210088;26;20465;-29
2024/04/24 15:07:56;;;;;;;3.05;0.68;;;18.60;54.90;;;;;;11209763;26;20007;-28
2024/04/24 15:13:02;;;;;;;2.90;0.60;;;18.60;54.90;;;;;;11209457;26;20015;-28
2024/04/24 15:18:05;;;;;;;1.95;0.50;;;18.60;55.00;;;;;;11209597;26;20066;-27
2024/04/24 15:23:09;;;;;;;0.70;0.47;;;18.60;55.00;;;;;;11209719;26;20000;-27
2024/04/24 15:28:15;;;;;;;0.90;0.40;;;18.60;55.00;;;;;;11208694;26;20014;-28
2024/04/24 15:33:18;;;;;;;1.10;0.43;;;18.70;55.00;;;;;;11207273;26;20011;-31
2024/04/24 15:38:21;;;;;;;3.00;0.70;;;18.70;55.00;;;;;;11209041;26;20011;-28
2024/04/24 15:43:27;;;;;;;2.05;0.50;;;18.70;54.70;;;;;;11208755;26;20051;-29
2024/04/24 15:48:30;;;;;;;2.00;0.70;;;18.70;54.80;;;;;;11208740;26;20013;-28
2024/04/24 15:53:33;;;;;;;1.23;0.52;;;18.70;54.80;;;;;;11208553;26;20000;-26
2024/04/24 15:58:39;;;;;;;2.05;0.70;;;18.80;54.80;;;;;;11207980;26;20339;-27
2024/04/24 16:03:43;;;;;;;3.80;0.70;;;18.80;54.80;;;;;;11208168;26;20011;-28
2024/04/24 16:08:46;;;;;;;6.32;0.60;;;18.90;54.90;;;;;;11208710;26;20454;-28
2024/04/24 16:13:52;;;;;;;2.28;0.60;;;18.90;54.80;;;;;;11207343;26;20011;-27
2024/04/24 16:18:55;;;;;;;5.90;0.60;;;18.90;55.00;;;;;;11207595;26;20352;-27
2024/04/24 16:23:58;;;;;;;8.35;0.90;;;18.90;54.90;;;;;;11207147;26;20014;-29
2024/04/24 16:29:04;;;;;;;3.63;0.80;;;18.90;55.00;;;;;;11207090;26;20015;-28
2024/04/24 16:34:07;;;;;;;5.88;0.90;;;18.90;55.00;;;;;;11206835;26;20010;-29
2024/04/24 16:39:11;;;;;;;7.20;0.70;;;19.00;55.20;;;;;;11206439;26;20349;-27
2024/04/24 16:44:17;;;;;;;5.55;0.95;;;19.00;55.20;;;;;;11211151;26;20014;-30
2024/04/24 16:49:23;;;;;;;7.45;0.98;;;19.00;55.00;;;;;;11213996;26;20015;-31
2024/04/24 16:54:26;;;;;;;9.85;1.55;;;19.00;55.20;;;;;;11213824;26;19999;-28
2024/04/24 16:59:32;;;;;;;4.15;0.80;;;19.10;55.20;;;;;;11214268;26;20010;-28
2024/04/24 17:04:35;;;;;;;4.55;0.80;;;19.10;55.20;;;;;;11213937;26;20004;-30
2024/04/24 17:09:39;;;;;;;8.38;0.75;;;19.10;55.20;;;;;;11213257;26;20017;-29
2024/04/24 17:14:45;;;;;;;8.48;0.70;;;19.10;55.30;;;;;;11213179;26;20011;-28
2024/04/24 17:19:48;;;;;;;3.38;0.88;;;19.10;55.30;;;;;;11213235;26;20352;-27
2024/04/24 17:24:51;;;;;;;8.10;1.00;;;19.10;55.40;;;;;;11212584;26;20014;-29
2024/04/24 17:29:57;;;;;;;6.43;0.70;;;19.10;55.40;;;;;;11212696;26;20346;-26
2024/04/24 17:35:00;;;;;;;5.40;0.68;;;19.10;55.40;;;;;;11212372;26;20004;-29
2024/04/24 17:40:03;;;;;;;5.28;0.65;;;19.00;55.40;;;;;;11208866;26;20428;-29
2024/04/24 17:45:10;;;;;;;5.35;0.80;;;19.00;55.50;;;;;;11212194;26;20013;-26
2024/04/24 17:50:15;;;;;;;4.78;0.80;;;19.00;55.80;;;;;;11212225;26;20029;-27
2024/04/24 17:55:18;;;;;;;5.65;1.15;;;19.00;55.60;;;;;;11210766;26;19999;-29
2024/04/24 18:00:25;;;;;;;5.97;0.95;;;19.10;55.30;;;;;;11211868;26;20010;-30
2024/04/24 18:05:29;;;;;;;7.55;0.80;;;19.10;56.30;;;;;;11211867;26;20361;-30
2024/04/24 18:10:32;;;;;;;7.47;1.08;;;19.20;56.50;;;;;;11211592;26;20018;-29
2024/04/24 18:15:39;;;;;;;8.98;1.25;;;19.10;56.50;;;;;;11211178;26;20000;-29
2024/04/24 18:20:42;;;;;;;5.35;0.90;;;19.10;56.90;;;;;;11211931;26;20015;-26
2024/04/24 18:25:45;;;;;;;10.45;1.42;;;19.10;56.20;;;;;;11210846;26;20007;-26
2024/04/24 18:30:51;;;;;;;5.53;1.23;;;18.90;56.90;;;;;;11211043;26;20358;-27
2024/04/24 18:35:54;;;;;;;5.88;0.85;;;18.70;57.40;;;;;;11211014;26;20000;-27
2024/04/24 18:40:58;;;;;;;5.68;1.05;;;18.50;57.60;;;;;;11210689;26;20003;-27
2024/04/24 18:46:03;;;;;;;6.60;1.10;;;18.50;57.80;;;;;;11210921;26;20008;-27
2024/04/24 18:51:07;;;;;;;3.55;0.77;;;18.40;57.90;;;;;;11210378;26;20010;-27
2024/04/24 18:56:10;;;;;;;5.50;0.80;;;18.40;58.00;;;;;;11210235;26;20420;-32
2024/04/24 19:01:16;;;;;;;3.80;1.17;;;18.30;58.10;;;;;;11210146;26;19999;-27
2024/04/24 19:06:20;;;;;;;2.75;0.90;;;18.20;58.10;;;;;;11209662;26;19996;-29
2024/04/24 19:11:23;;;;;;;2.55;0.50;;;18.20;58.20;;;;;;11209862;26;20019;-25
2024/04/24 19:16:29;;;;;;;3.20;0.80;;;18.20;58.30;;;;;;11209445;26;20003;-29
2024/04/24 19:21:32;;;;;;;2.63;0.68;;;18.10;58.90;;;;;;11208847;26;20521;-27
2024/04/24 19:26:35;;;;;;;6.03;0.80;;;18.10;58.30;;;;;;11240755;26;20017;-30
2024/04/24 19:31:42;;;;;;;3.83;1.00;;;18.10;58.40;;;;;;11283450;26;20349;-28
2024/04/24 19:36:45;;;;;;;2.20;0.70;;;18.10;58.40;;;;;;11283245;26;20006;-27
2024/04/24 19:41:49;;;;;;;1.48;0.70;;;18.00;58.50;;;;;;11283282;26;19999;-27
2024/04/24 19:46:55;;;;;;;2.15;0.70;;;18.00;58.50;;;;;;11282998;26;20003;-26
2024/04/24 19:51:58;;;;;;;3.53;0.70;;;18.00;58.60;;;;;;11282466;26;20013;-28
2024/04/24 19:57:01;;;;;;;3.60;1.08;;;18.00;58.60;;;;;;11282556;26;20003;-28
2024/04/24 20:02:07;;;;;;;1.15;0.60;;;17.90;58.60;;;;;;11282698;26;19995;-27
2024/04/24 20:07:12;;;;;;;5.78;1.10;;;17.90;58.70;;;;;;11282024;26;20353;-28
2024/04/24 20:12:15;;;;;;;1.42;0.82;;;17.90;58.70;;;;;;11282162;26;19999;-28
2024/04/24 20:17:21;;;;;;;1.00;0.65;;;17.80;58.70;;;;;;11283667;26;20467;-29
2024/04/24 20:22:24;;;;;;;1.05;0.50;;;17.90;58.70;;;;;;11288936;26;20014;-27
2024/04/24 20:27:28;;;;;;;0.82;0.50;;;17.80;58.70;;;;;;11288988;26;20471;-27
2024/04/24 20:32:34;;;;;;;1.75;0.75;;;17.80;58.80;;;;;;11288886;26;20006;-29
2024/04/24 20:37:37;;;;;;;1.58;0.60;;;17.70;58.80;;;;;;11288134;26;20369;-28
2024/04/24 20:42:41;;;;;;;1.35;0.63;;;17.80;58.90;;;;;;11285936;26;20088;-30
2024/04/24 20:47:47;;;;;;;1.08;0.50;;;17.70;58.90;;;;;;11287831;26;19998;-29
2024/04/24 20:52:50;;;;;;;1.92;0.50;;;17.70;58.90;;;;;;11262658;26;20361;-28
2024/04/24 20:57:53;;;;;;;1.75;0.60;;;17.70;59.00;;;;;;11213579;26;20004;-27
2024/04/24 21:02:59;;;;;;;2.80;0.60;;;17.70;59.00;;;;;;11213584;26;20353;-28
2024/04/24 21:08:02;;;;;;;0.68;0.50;;;17.60;59.00;;;;;;11213585;26;20000;-31
2024/04/24 21:13:06;;;;;;;1.92;0.60;;;17.60;59.00;;;;;;11213362;26;20397;-31
2024/04/24 21:18:12;;;;;;;0.82;0.52;;;17.60;59.00;;;;;;11213299;26;20015;-28
2024/04/24 21:23:16;;;;;;;0.80;0.50;;;17.60;59.00;;;;;;11214272;26;20000;-28
2024/04/24 21:28:19;;;;;;;1.35;0.60;;;17.60;59.00;;;;;;11212910;26;20014;-27
2024/04/24 21:33:25;;;;;;;1.10;0.70;;;17.60;59.00;;;;;;11212381;26;19999;-25
2024/04/24 21:38:33;;;;;;;2.80;0.70;;;17.50;58.90;;;;;;11212643;26;20003;-27
2024/04/24 21:43:36;;;;;;;0.40;0.40;;;17.50;58.90;;;;;;11212410;26;20072;-26
2024/04/24 21:48:42;;;;;;;0.80;0.63;;;17.50;59.00;;;;;;11212203;26;20430;-26
2024/04/24 21:53:45;;;;;;;1.27;0.57;;;17.50;59.10;;;;;;11212117;26;20007;-29
2024/04/24 21:58:49;;;;;;;1.45;0.60;;;17.40;59.10;;;;;;11212027;26;20000;-28
2024/04/24 22:03:56;;;;;;;0.80;0.70;;;17.40;59.10;;;;;;11211741;26;20018;-27
2024/04/24 22:08:59;;;;;;;0.88;0.60;;;17.50;59.20;;;;;;11211906;26;19999;-28
2024/04/24 22:14:02;;;;;;;0.73;0.60;;;17.40;59.20;;;;;;11212025;26;20010;-28
2024/04/24 22:19:08;;;;;;;1.40;0.60;;;17.40;59.20;;;;;;11211512;26;20000;-27
2024/04/24 22:24:11;;;;;;;1.77;0.60;;;17.40;59.20;;;;;;11211423;26;20011;-29
2024/04/24 22:29:15;;;;;;;1.45;0.60;;;17.30;59.20;;;;;;11211160;26;19996;-26
2024/04/24 22:34:21;;;;;;;1.75;0.70;;;17.30;59.20;;;;;;11210845;26;20481;-26
2024/04/24 22:39:24;;;;;;;1.52;0.82;;;17.30;59.20;;;;;;11210243;26;19996;-31
2024/04/24 22:44:27;;;;;;;1.48;0.70;;;17.30;59.30;;;;;;11210644;26;20014;-26
2024/04/24 22:49:33;;;;;;;1.60;0.60;;;17.30;59.30;;;;;;11210869;26;20446;-28
2024/04/24 22:54:37;;;;;;;1.05;0.70;;;17.30;59.20;;;;;;11210481;26;20011;-27
2024/04/24 22:59:41;;;;;;;0.80;0.52;;;17.20;59.20;;;;;;11210131;26;20454;-28
2024/04/24 23:04:47;;;;;;;0.98;0.57;;;17.20;59.30;;;;;;11210055;26;20022;-29
2024/04/24 23:09:51;;;;;;;0.77;0.60;;;17.20;59.30;;;;;;11209941;26;20388;-26
2024/04/24 23:14:54;;;;;;;1.17;0.85;;;17.20;59.30;;;;;;11209698;26;20415;-26
2024/04/24 23:20:00;;;;;;;1.55;0.60;;;17.20;59.30;;;;;;11209893;26;20011;-29
2024/04/24 23:25:04;;;;;;;1.80;0.80;;;17.10;59.20;;;;;;11209496;26;20007;-26
2024/04/24 23:30:08;;;;;;;0.90;0.75;;;17.10;59.30;;;;;;11209366;26;20019;-28
2024/04/24 23:35:14;;;;;;;0.70;0.70;;;17.10;59.30;;;;;;11208993;26;20412;-29
2024/04/24 23:40:17;;;;;;;0.95;0.40;;;17.10;59.40;;;;;;11209245;26;20003;-26
2024/04/24 23:45:20;;;;;;;1.35;0.77;;;17.10;59.40;;;;;;11208698;26;19999;-29
2024/04/24 23:50:26;;;;;;;1.40;0.85;;;17.10;59.40;;;;;;11208344;26;20353;-28
2024/04/24 23:55:30;;;;;;;1.05;0.60;;;17.10;59.40;;;;;;11207447;26;20014;-25
